createdAt,value
2019-05-09T00:02:30.469Z,83.47
2019-05-09T00:04:59.646Z,83.47
2019-05-09T00:07:28.832Z,83.36
2019-05-09T00:09:58.127Z,83.62
2019-05-09T00:12:27.316Z,83.62
2019-05-09T00:14:56.489Z,83.92
2019-05-09T00:17:25.662Z,83.54
2019-05-09T00:19:56.489Z,83.49
2019-05-09T00:22:25.667Z,83.66
2019-05-09T00:24:54.853Z,83.42
2019-05-09T00:27:24.087Z,83.42
2019-05-09T00:29:53.385Z,84.18
2019-05-09T00:32:26.887Z,83.44
2019-05-09T00:35:14.251Z,83.44
2019-05-09T00:38:00.379Z,82.36
2019-05-09T00:40:29.581Z,82.36
2019-05-09T00:42:58.751Z,82.05
2019-05-09T00:48:39.998Z,81.89
2019-05-09T00:51:09.196Z,81.60
2019-05-09T00:53:38.387Z,81.51
2019-05-09T00:56:07.557Z,81.32
2019-05-09T00:58:36.743Z,81.19
2019-05-09T01:01:05.979Z,81.05
2019-05-09T01:03:35.165Z,81.51
2019-05-09T01:06:04.560Z,81.65
2019-05-09T01:08:33.884Z,81.43
2019-05-09T01:11:11.419Z,81.69
2019-05-09T01:13:34.334Z,81.54
2019-05-09T01:16:04.708Z,81.62
2019-05-09T01:18:35.165Z,81.62
2019-05-09T01:21:04.515Z,82.13
2019-05-09T01:23:34.451Z,82.04
2019-05-09T01:26:04.160Z,81.67
2019-05-09T01:28:34.066Z,81.54
2019-05-09T01:31:04.211Z,81.85
2019-05-09T01:33:35.139Z,82.02
2019-05-09T01:36:05.309Z,82.86
2019-05-09T01:38:34.488Z,82.86
2019-05-09T01:41:04.128Z,83.36
2019-05-09T01:43:33.877Z,83.44
2019-05-09T01:46:03.929Z,83.49
2019-05-09T01:48:34.072Z,83.58
2019-05-09T01:51:03.584Z,83.73
2019-05-09T01:53:36.758Z,83.52
2019-05-09T01:56:06.033Z,83.41
2019-05-09T01:58:35.272Z,83.02
2019-05-09T02:01:06.236Z,83.02
2019-05-09T02:03:35.485Z,82.98
2019-05-09T02:06:05.514Z,82.98
2019-05-09T02:08:34.803Z,84.18
2019-05-09T02:11:04.426Z,84.18
2019-05-09T02:13:34.047Z,84.27
2019-05-09T02:16:07.517Z,84.43
2019-05-09T02:18:50.428Z,84.40
2019-05-09T02:21:19.668Z,84.11
2019-05-09T02:23:48.825Z,84.12
2019-05-09T02:26:18.019Z,84.12
2019-05-09T02:28:47.202Z,84.26
2019-05-09T02:31:16.766Z,83.73
2019-05-09T02:33:46.116Z,83.73
2019-05-09T02:36:18.705Z,83.18
2019-05-09T02:38:48.662Z,83.49
2019-05-09T02:41:19.582Z,83.49
2019-05-09T02:44:09.065Z,83.55
2019-05-09T02:46:44.349Z,84.48
2019-05-09T02:49:13.533Z,84.66
2019-05-09T02:51:42.701Z,84.66
2019-05-09T02:54:11.875Z,84.42
2019-05-09T02:56:41.064Z,84.17
2019-05-09T02:59:12.066Z,84.56
2019-05-09T03:01:59.021Z,84.56
2019-05-09T03:04:28.587Z,84.40
2019-05-09T03:06:59.684Z,84.40
2019-05-09T03:09:28.968Z,83.59
2019-05-09T03:11:59.252Z,83.59
2019-05-09T03:14:29.152Z,83.01
2019-05-09T03:17:00.260Z,83.01
2019-05-09T03:19:30.111Z,82.93
2019-05-09T03:22:18.778Z,82.64
2019-05-09T03:24:48.783Z,82.06
2019-05-09T03:27:28.938Z,82.12
2019-05-09T03:29:59.887Z,82.82
2019-05-09T03:32:29.885Z,82.82
2019-05-09T03:34:59.124Z,82.90
2019-05-09T03:37:28.310Z,82.90
2019-05-09T03:39:58.130Z,83.21
2019-05-09T03:42:39.691Z,83.21
2019-05-09T03:44:58.330Z,83.04
2019-05-09T03:47:29.153Z,82.29
2019-05-09T03:50:08.985Z,81.86
2019-05-09T03:52:38.153Z,81.86
2019-05-09T03:55:12.251Z,82.31
2019-05-09T03:57:51.829Z,82.31
2019-05-09T04:00:21.347Z,81.74
2019-05-09T04:02:50.528Z,81.27
2019-05-09T04:05:19.706Z,81.27
2019-05-09T04:07:48.877Z,81.67
2019-05-09T04:10:18.183Z,82.55
2019-05-09T04:12:56.289Z,82.15
2019-05-09T04:15:19.097Z,81.79
2019-05-09T04:17:48.427Z,81.20
2019-05-09T04:20:18.618Z,81.20
2019-05-09T04:22:49.097Z,82.56
2019-05-09T04:25:20.079Z,82.68
2019-05-09T04:27:50.897Z,82.68
2019-05-09T04:30:20.067Z,82.36
2019-05-09T04:32:49.236Z,82.37
2019-05-09T04:35:19.467Z,82.67
2019-05-09T04:37:48.640Z,82.62
2019-05-09T04:40:18.294Z,81.77
2019-05-09T04:42:47.570Z,81.77
2019-05-09T04:45:33.143Z,82.18
2019-05-09T04:48:01.208Z,82.18
2019-05-09T04:50:30.362Z,82.17
2019-05-09T04:52:59.551Z,82.45
2019-05-09T04:55:30.409Z,82.28
2019-05-09T04:58:00.198Z,82.21
2019-05-09T05:00:31.147Z,82.16
2019-05-09T05:03:01.255Z,81.68
2019-05-09T05:05:30.456Z,81.55
2019-05-09T05:07:59.669Z,81.55
2019-05-09T05:10:28.921Z,81.57
2019-05-09T05:12:58.057Z,81.57
2019-05-09T05:15:27.672Z,81.71
2019-05-09T05:17:58.268Z,81.90
2019-05-09T05:20:29.325Z,81.90
2019-05-09T05:23:00.065Z,81.45
2019-05-09T05:25:29.172Z,80.83
2019-05-09T05:27:58.351Z,80.78
2019-05-09T05:30:28.366Z,80.78
2019-05-09T05:33:01.961Z,81.18
2019-05-09T05:35:37.573Z,81.18
2019-05-09T05:38:08.562Z,80.50
2019-05-09T05:40:45.121Z,80.50
2019-05-09T05:43:08.953Z,79.66
2019-05-09T05:45:39.904Z,79.66
2019-05-09T05:48:10.716Z,79.70
2019-05-09T05:50:39.900Z,79.51
2019-05-09T05:53:09.002Z,79.73
2019-05-09T05:55:38.199Z,79.45
2019-05-09T05:58:08.564Z,79.45
2019-05-09T06:00:38.012Z,79.88
2019-05-09T06:03:08.733Z,80.16
2019-05-09T06:05:38.563Z,80.03
2019-05-09T06:08:08.316Z,80.03
2019-05-09T06:10:38.051Z,80.17
2019-05-09T06:13:07.965Z,80.18
2019-05-09T06:15:38.122Z,79.99
2019-05-09T06:18:07.966Z,80.15
2019-05-09T06:20:38.538Z,80.07
2019-05-09T06:23:08.594Z,80.10
2019-05-09T06:25:38.974Z,80.45
2019-05-09T06:28:08.323Z,80.67
2019-05-09T06:30:40.952Z,80.85
2019-05-09T06:33:09.256Z,81.08
2019-05-09T06:35:58.664Z,80.70
2019-05-09T06:38:28.261Z,81.15
2019-05-09T06:40:58.248Z,81.15
2019-05-09T06:43:35.000Z,81.07
2019-05-09T06:46:20.142Z,80.58
2019-05-09T06:48:49.339Z,80.56
2019-05-09T06:51:21.212Z,80.25
2019-05-09T06:53:49.405Z,79.71
2019-05-09T06:56:18.585Z,78.44
2019-05-09T06:58:48.184Z,76.33
2019-05-09T07:01:19.087Z,75.57
2019-05-09T07:04:05.111Z,74.99
2019-05-09T07:06:38.743Z,74.01
2019-05-09T07:09:17.509Z,72.90
2019-05-09T07:11:48.672Z,71.01
2019-05-09T07:14:32.634Z,70.30
2019-05-09T07:17:00.055Z,69.66
2019-05-09T07:19:29.300Z,68.27
2019-05-09T07:22:02.945Z,66.35
2019-05-09T07:24:34.691Z,64.69
2019-05-09T07:27:03.886Z,65.20
2019-05-09T07:29:34.977Z,64.45
2019-05-09T07:32:08.707Z,63.73
2019-05-09T07:34:41.976Z,64.48
2019-05-09T07:37:11.166Z,64.75
2019-05-09T07:39:40.355Z,65.27
2019-05-09T07:42:09.532Z,64.10
2019-05-09T07:44:48.437Z,63.54
2019-05-09T07:47:09.592Z,62.66
2019-05-09T07:49:39.685Z,61.36
2019-05-09T07:52:10.390Z,63.13
2019-05-09T07:54:39.831Z,64.87
2019-05-09T07:57:09.092Z,67.11
2019-05-09T07:59:38.920Z,68.51
2019-05-09T08:02:08.858Z,67.83
2019-05-09T08:04:38.707Z,67.79
2019-05-09T08:07:08.559Z,68.21
2019-05-09T08:09:38.743Z,68.84
2019-05-09T08:12:08.151Z,68.55
2019-05-09T08:14:37.886Z,68.46
2019-05-09T08:17:08.556Z,69.35
2019-05-09T08:19:38.203Z,69.45
2019-05-09T08:22:08.118Z,70.40
2019-05-09T08:24:38.114Z,71.15
2019-05-09T08:27:08.506Z,70.92
2019-05-09T08:29:38.690Z,70.71
2019-05-09T08:32:08.027Z,70.34
2019-05-09T08:34:37.922Z,71.22
2019-05-09T08:37:08.116Z,70.91
2019-05-09T08:39:38.308Z,69.54
2019-05-09T08:42:08.688Z,68.82
2019-05-09T08:44:41.909Z,68.65
2019-05-09T08:47:08.976Z,67.82
2019-05-09T08:49:47.350Z,67.78
2019-05-09T08:52:19.718Z,68.11
2019-05-09T08:54:57.953Z,67.71
2019-05-09T08:57:28.847Z,67.93
2019-05-09T08:59:58.901Z,68.09
2019-05-09T09:02:28.501Z,67.86
2019-05-09T09:04:58.470Z,66.83
2019-05-09T09:07:29.660Z,68.17
2019-05-09T09:09:58.610Z,68.00
2019-05-09T09:12:34.037Z,66.47
2019-05-09T09:14:58.860Z,67.48
2019-05-09T09:17:28.157Z,67.23
2019-05-09T09:19:58.330Z,67.33
2019-05-09T09:22:28.526Z,67.71
2019-05-09T09:24:58.609Z,68.07
2019-05-09T09:27:29.186Z,67.54
2019-05-09T09:30:00.261Z,67.13
2019-05-09T09:32:29.234Z,66.92
2019-05-09T09:34:58.846Z,67.38
2019-05-09T09:37:43.800Z,67.32
2019-05-09T09:39:58.925Z,65.93
2019-05-09T09:42:28.398Z,68.12
2019-05-09T09:44:58.515Z,68.23
2019-05-09T09:47:28.575Z,66.03
2019-05-09T09:49:59.526Z,66.11
2019-05-09T09:52:30.635Z,65.43
2019-05-09T09:54:59.924Z,65.22
2019-05-09T09:57:29.114Z,65.04
2019-05-09T09:59:59.979Z,66.14
2019-05-09T10:02:37.847Z,66.06
2019-05-09T10:05:08.058Z,66.85
2019-05-09T10:07:38.418Z,67.42
2019-05-09T10:10:08.347Z,65.45
2019-05-09T10:12:43.667Z,68.06
2019-05-09T10:15:19.538Z,67.59
2019-05-09T10:17:52.817Z,66.27
2019-05-09T10:20:28.990Z,66.48
2019-05-09T10:23:11.223Z,66.23
2019-05-09T10:25:31.424Z,66.01
2019-05-09T10:28:00.631Z,66.20
2019-05-09T10:30:31.308Z,67.06
2019-05-09T10:33:00.499Z,66.92
2019-05-09T10:35:29.748Z,66.33
2019-05-09T10:37:59.967Z,66.45
2019-05-09T10:40:29.128Z,66.91
2019-05-09T10:43:08.127Z,67.08
2019-05-09T10:45:41.141Z,66.88
2019-05-09T10:48:10.387Z,66.07
2019-05-09T10:50:44.571Z,66.11
2019-05-09T10:53:10.456Z,66.33
2019-05-09T10:55:39.677Z,66.67
2019-05-09T10:58:08.864Z,66.37
2019-05-09T11:00:40.058Z,65.98
2019-05-09T11:03:09.146Z,65.69
2019-05-09T11:05:38.320Z,65.67
2019-05-09T11:08:08.323Z,65.70
2019-05-09T11:10:39.653Z,65.62
2019-05-09T11:13:08.467Z,65.87
2019-05-09T11:15:37.775Z,66.31
2019-05-09T11:18:08.076Z,64.95
2019-05-09T11:20:38.946Z,64.30
2019-05-09T11:23:08.370Z,64.42
2019-05-09T11:25:38.188Z,63.50
2019-05-09T11:28:11.450Z,64.72
2019-05-09T11:30:38.705Z,64.19
2019-05-09T11:33:27.814Z,64.00
2019-05-09T11:35:58.117Z,62.41
2019-05-09T11:38:34.096Z,62.32
2019-05-09T11:40:58.420Z,61.57
2019-05-09T11:43:29.908Z,62.25
2019-05-09T11:45:58.960Z,61.82
2019-05-09T11:48:45.973Z,62.56
2019-05-09T11:51:20.379Z,62.73
2019-05-09T11:53:48.695Z,63.21
2019-05-09T11:56:18.296Z,62.36
2019-05-09T11:58:48.298Z,61.34
2019-05-09T12:01:18.948Z,61.19
2019-05-09T12:03:52.049Z,61.06
2019-05-09T12:06:20.371Z,61.56
2019-05-09T12:08:50.892Z,60.99
2019-05-09T12:11:20.213Z,61.08
2019-05-09T12:13:49.422Z,61.55
2019-05-09T12:16:18.937Z,60.57
2019-05-09T12:18:49.030Z,59.68
2019-05-09T12:21:19.447Z,58.85
2019-05-09T12:23:49.454Z,59.62
2019-05-09T12:26:19.086Z,59.85
2019-05-09T12:28:48.746Z,59.53
2019-05-09T12:31:18.521Z,59.01
2019-05-09T12:33:48.587Z,58.04
2019-05-09T12:36:19.920Z,57.96
2019-05-09T12:38:50.221Z,58.71
2019-05-09T12:41:19.608Z,58.96
2019-05-09T12:43:48.932Z,58.39
2019-05-09T12:46:40.209Z,58.55
2019-05-09T12:49:09.437Z,58.95
2019-05-09T12:51:38.638Z,60.86
2019-05-09T12:54:08.508Z,61.68
2019-05-09T12:56:38.601Z,61.92
2019-05-09T12:59:08.811Z,61.72
2019-05-09T13:01:40.588Z,61.80
2019-05-09T13:04:09.740Z,61.83
2019-05-09T13:06:58.695Z,61.66
2019-05-09T13:09:28.686Z,60.04
2019-05-09T13:11:57.979Z,60.00
2019-05-09T13:14:28.595Z,59.89
2019-05-09T13:17:07.912Z,59.93
2019-05-09T13:19:38.340Z,59.58
2019-05-09T13:22:08.312Z,58.91
2019-05-09T13:24:37.917Z,58.15
2019-05-09T13:27:07.939Z,57.24
2019-05-09T13:29:38.169Z,56.90
2019-05-09T13:32:08.724Z,57.16
2019-05-09T13:34:38.301Z,57.22
2019-05-09T13:37:09.072Z,57.04
2019-05-09T13:39:39.763Z,56.46
2019-05-09T13:42:09.310Z,56.57
2019-05-09T13:44:41.342Z,56.61
2019-05-09T13:47:10.945Z,56.64
2019-05-09T13:49:40.478Z,57.03
2019-05-09T13:52:10.301Z,58.09
2019-05-09T13:54:39.515Z,58.99
2019-05-09T13:57:08.923Z,59.83
2019-05-09T13:59:38.171Z,60.75
2019-05-09T14:02:07.426Z,61.19
2019-05-09T14:04:39.580Z,61.79
2019-05-09T14:07:08.336Z,60.89
2019-05-09T14:09:38.617Z,60.35
2019-05-09T14:12:09.320Z,58.59
2019-05-09T14:14:38.931Z,58.56
2019-05-09T14:17:08.931Z,58.28
2019-05-09T14:19:45.476Z,58.34
2019-05-09T14:22:09.883Z,57.62
2019-05-09T14:24:39.151Z,57.43
2019-05-09T14:27:08.423Z,57.53
2019-05-09T14:29:38.388Z,56.81
2019-05-09T14:32:07.738Z,56.67
2019-05-09T14:34:38.197Z,57.11
2019-05-09T14:37:09.516Z,56.60
2019-05-09T14:39:54.539Z,57.13
2019-05-09T14:42:09.626Z,57.52
2019-05-09T14:44:38.802Z,56.93
2019-05-09T14:47:08.191Z,57.21
2019-05-09T14:49:43.226Z,56.95
2019-05-09T14:52:08.404Z,56.50
2019-05-09T14:54:39.213Z,56.60
2019-05-09T14:57:09.653Z,57.00
2019-05-09T14:59:39.060Z,57.30
2019-05-09T15:02:09.290Z,58.00
2019-05-09T15:04:38.805Z,57.00
2019-05-09T15:07:08.097Z,57.00
2019-05-09T15:09:37.274Z,55.28
2019-05-09T15:12:06.475Z,54.45
2019-05-09T15:14:38.167Z,54.98
2019-05-09T15:17:08.784Z,55.86
2019-05-09T15:19:38.547Z,55.71
2019-05-09T15:22:08.509Z,55.05
2019-05-09T15:24:38.790Z,53.16
2019-05-09T15:27:08.204Z,54.58
2019-05-09T15:29:39.131Z,57.05
2019-05-09T15:32:12.103Z,57.25
2019-05-09T15:34:39.153Z,57.04
2019-05-09T15:37:08.893Z,57.08
2019-05-09T15:39:39.030Z,55.84
2019-05-09T15:42:08.191Z,56.09
2019-05-09T15:44:37.389Z,55.97
2019-05-09T15:47:23.324Z,55.06
2019-05-09T15:49:52.517Z,54.85
2019-05-09T15:52:21.737Z,54.27
2019-05-09T15:54:52.330Z,54.66
2019-05-09T15:57:21.524Z,53.99
2019-05-09T15:59:50.775Z,53.64
2019-05-09T16:02:22.810Z,53.98
2019-05-09T16:04:53.013Z,53.22
2019-05-09T16:07:22.182Z,53.57
2019-05-09T16:09:51.363Z,53.26
2019-05-09T16:12:23.281Z,53.06
2019-05-09T16:14:52.507Z,53.28
2019-05-09T16:17:21.747Z,53.74
2019-05-09T16:19:50.982Z,54.38
2019-05-09T16:22:20.168Z,54.82
2019-05-09T16:24:49.387Z,55.02
2019-05-09T16:27:18.896Z,55.29
2019-05-09T16:29:48.687Z,55.36
2019-05-09T16:32:18.201Z,55.48
2019-05-09T16:34:47.376Z,56.20
2019-05-09T16:37:16.568Z,56.57
2019-05-09T16:39:47.644Z,56.52
2019-05-09T16:42:27.580Z,56.45
2019-05-09T16:44:59.379Z,56.75
2019-05-09T16:47:28.407Z,56.91
2019-05-09T16:49:58.054Z,57.08
2019-05-09T16:52:27.455Z,57.68
2019-05-09T16:54:58.560Z,57.68
2019-05-09T16:57:27.838Z,58.26
2019-05-09T16:59:57.029Z,58.43
2019-05-09T17:02:28.709Z,58.46
2019-05-09T17:04:58.046Z,58.65
2019-05-09T17:07:27.825Z,59.02
2019-05-09T17:09:57.759Z,60.10
2019-05-09T17:12:27.098Z,60.74
2019-05-09T17:14:59.451Z,61.14
2019-05-09T17:17:27.858Z,61.46
2019-05-09T17:19:57.333Z,61.39
2019-05-09T17:22:44.471Z,61.62
2019-05-09T17:25:13.705Z,62.05
2019-05-09T17:27:42.966Z,62.62
2019-05-09T17:30:12.543Z,62.73
2019-05-09T17:32:41.945Z,63.40
2019-05-09T17:35:13.883Z,63.39
2019-05-09T17:37:43.076Z,63.52
2019-05-09T17:40:15.807Z,63.28
2019-05-09T17:42:43.310Z,63.35
2019-05-09T17:45:13.152Z,63.63
2019-05-09T17:47:42.394Z,63.07
2019-05-09T17:50:11.896Z,63.80
2019-05-09T17:52:41.081Z,64.31
2019-05-09T17:55:10.500Z,64.77
2019-05-09T17:57:39.700Z,64.93
2019-05-09T18:00:10.526Z,65.17
2019-05-09T18:02:39.718Z,65.54
2019-05-09T18:05:09.013Z,65.66
2019-05-09T18:07:54.201Z,65.86
2019-05-09T18:10:23.422Z,66.31
2019-05-09T18:12:52.756Z,66.42
2019-05-09T18:15:23.260Z,66.58
2019-05-09T18:17:55.589Z,67.01
2019-05-09T18:20:39.033Z,66.85
2019-05-09T18:23:08.499Z,66.88
2019-05-09T18:25:41.770Z,67.10
2019-05-09T18:28:11.032Z,67.40
2019-05-09T18:30:40.210Z,67.68
2019-05-09T18:33:11.060Z,67.86
2019-05-09T18:35:43.243Z,67.53
2019-05-09T18:38:19.403Z,67.92
2019-05-09T18:40:48.605Z,68.44
2019-05-09T18:43:19.403Z,69.68
2019-05-09T18:45:50.575Z,69.54
2019-05-09T18:48:19.760Z,70.65
2019-05-09T18:50:49.106Z,71.71
2019-05-09T18:53:18.410Z,73.21
2019-05-09T18:55:47.577Z,73.47
2019-05-09T18:58:16.787Z,73.76
2019-05-09T19:00:46.025Z,74.32
2019-05-09T19:03:15.224Z,76.01
2019-05-09T19:05:44.392Z,77.41
2019-05-09T19:08:13.598Z,78.13
2019-05-09T19:10:42.777Z,78.00
2019-05-09T19:13:14.085Z,79.65
2019-05-09T19:15:44.964Z,80.20
2019-05-09T19:18:21.432Z,81.06
2019-05-09T19:20:52.297Z,81.83
2019-05-09T19:23:21.474Z,82.71
2019-05-09T19:25:50.655Z,83.98
2019-05-09T19:28:23.674Z,85.11
2019-05-09T19:30:51.776Z,85.59
2019-05-09T19:33:21.314Z,86.00
2019-05-09T19:35:50.521Z,84.91
2019-05-09T19:38:19.706Z,84.83
2019-05-09T19:40:48.918Z,85.76
2019-05-09T19:43:18.164Z,87.14
2019-05-09T19:45:47.383Z,87.15
2019-05-09T19:48:16.586Z,87.07
2019-05-09T19:50:45.775Z,86.98
2019-05-09T19:53:14.944Z,86.17
2019-05-09T19:55:44.132Z,86.29
2019-05-09T19:58:13.478Z,86.27
2019-05-09T20:00:42.687Z,86.20
2019-05-09T20:03:11.872Z,87.16
2019-05-09T20:05:41.052Z,87.91
2019-05-09T20:08:10.237Z,87.81
2019-05-09T20:10:57.530Z,88.67
2019-05-09T20:13:28.361Z,88.67
2019-05-09T20:15:57.824Z,88.83
2019-05-09T20:18:27.034Z,88.85
2019-05-09T20:20:56.506Z,88.66
2019-05-09T20:23:25.769Z,88.86
2019-05-09T20:25:54.928Z,88.52
2019-05-09T20:28:24.392Z,88.74
2019-05-09T20:30:55.239Z,88.81
2019-05-09T20:33:24.444Z,89.16
2019-05-09T20:35:53.605Z,89.76
2019-05-09T20:38:22.980Z,90.71
2019-05-09T20:40:52.318Z,89.98
2019-05-09T20:43:21.751Z,90.35
2019-05-09T20:45:51.369Z,91.42
2019-05-09T20:48:20.767Z,92.04
2019-05-09T20:50:50.145Z,92.04
2019-05-09T20:53:19.522Z,91.87
2019-05-09T20:55:48.898Z,91.52
2019-05-09T20:58:18.286Z,91.40
2019-05-09T21:00:47.798Z,91.50
2019-05-09T21:03:17.171Z,91.93
2019-05-09T21:05:47.981Z,91.70
2019-05-09T21:08:17.343Z,91.88
2019-05-09T21:10:46.706Z,92.10
2019-05-09T21:13:16.160Z,92.12
2019-05-09T21:15:45.518Z,91.55
2019-05-09T21:18:14.950Z,90.84
2019-05-09T21:20:44.372Z,90.60
2019-05-09T21:23:24.250Z,90.34
2019-05-09T21:25:44.873Z,90.65
2019-05-09T21:28:14.261Z,90.78
2019-05-09T21:30:45.156Z,91.06
2019-05-09T21:33:14.552Z,90.76
2019-05-09T21:35:43.772Z,90.40
2019-05-09T21:38:12.942Z,91.03
2019-05-09T21:40:42.212Z,91.01
2019-05-09T21:43:11.402Z,91.20
2019-05-09T21:45:43.137Z,91.71
2019-05-09T21:48:12.334Z,91.81
2019-05-09T21:50:41.521Z,91.52
2019-05-09T21:53:10.757Z,91.44
2019-05-09T21:55:39.938Z,91.51
2019-05-09T21:58:09.138Z,91.24
2019-05-09T22:00:40.959Z,91.59
2019-05-09T22:03:10.317Z,90.99
2019-05-09T22:05:39.544Z,91.37
2019-05-09T22:08:08.991Z,91.30
2019-05-09T22:10:38.165Z,90.98
2019-05-09T22:13:07.353Z,90.49
2019-05-09T22:15:36.597Z,90.04
2019-05-09T22:18:05.927Z,90.43
2019-05-09T22:20:35.153Z,90.62
2019-05-09T22:23:06.394Z,90.91
2019-05-09T22:25:35.213Z,91.39
2019-05-09T22:28:04.563Z,92.53
2019-05-09T22:30:33.788Z,92.86
2019-05-09T22:33:02.967Z,93.04
2019-05-09T22:35:32.159Z,92.87
2019-05-09T22:38:01.369Z,92.74
2019-05-09T22:40:30.572Z,91.96
2019-05-09T22:42:59.765Z,92.24
2019-05-09T22:45:28.950Z,92.24
2019-05-09T22:47:59.154Z,92.67
2019-05-09T22:50:28.420Z,92.85
2019-05-09T22:52:57.585Z,92.55
2019-05-09T22:55:26.786Z,92.64
2019-05-09T22:57:55.946Z,92.64
2019-05-09T23:00:25.292Z,92.33
2019-05-09T23:02:54.471Z,90.29
2019-05-09T23:05:23.777Z,90.29
2019-05-09T23:07:52.981Z,88.88
2019-05-09T23:10:22.158Z,88.88
2019-05-09T23:12:51.381Z,88.27
2019-05-09T23:15:20.719Z,88.81
2019-05-09T23:17:49.891Z,88.68
2019-05-09T23:20:37.136Z,88.79
2019-05-09T23:23:22.901Z,87.51
2019-05-09T23:25:52.156Z,87.51
2019-05-09T23:28:21.342Z,87.30
2019-05-09T23:30:52.248Z,87.33
2019-05-09T23:33:22.198Z,87.46
2019-05-09T23:35:51.411Z,87.70
2019-05-09T23:38:20.920Z,88.32
2019-05-09T23:40:50.191Z,88.25
2019-05-09T23:43:19.383Z,88.57
2019-05-09T23:45:48.577Z,88.68
2019-05-09T23:48:17.759Z,88.20
2019-05-09T23:50:46.945Z,88.31
2019-05-09T23:53:20.851Z,88.12
2019-05-09T23:56:07.427Z,87.83
2019-05-09T23:58:54.612Z,87.59
